<?xml version="1.0" encoding="UTF-8" standalone="no" ?>
<gpx xmlns="http://www.topografix.com/GPX/1/1" xmlns:xsi="http://www.w3.org/2001/XMLSchema-instance" xsi:schemaLocation="http://www.topografix.com/GPX/1/1 http://www.topografix.com/GPX/1/1/gpx.xsd" version="1.1" creator="VisuGPX - https://www.visugpx.com">
  <metadata>
    <name>Davrinche20101</name>
    <desc><![CDATA[la partie 1 des repérages]]></desc>
  </metadata>
  <trk>
    <name><![CDATA[--Orcines-- OR-5370357:ser-fr03-vtt-b3]]></name>
    <trkseg>
      <trkpt lat="45.80346" lon="2.9869">
        <ele>975</ele>
        <time>2015-10-17T14:42:50Z</time>
      </trkpt>
      <trkpt lat="45.80316" lon="2.98689">
        <ele>974</ele>
        <time>2015-10-17T14:44:50Z</time>
      </trkpt>
      <trkpt lat="45.80239" lon="2.98713">
        <ele>974</ele>
        <time>2015-10-17T14:46:50Z</time>
      </trkpt>
      <trkpt lat="45.80202" lon="2.98646">
        <ele>972</ele>
        <time>2015-10-17T14:48:50Z</time>
      </trkpt>
      <trkpt lat="45.80194" lon="2.98588">
        <ele>973</ele>
        <time>2015-10-17T14:50:50Z</time>
      </trkpt>
      <trkpt lat="45.8018" lon="2.98533">
        <ele>972</ele>
        <time>2015-10-17T14:52:50Z</time>
      </trkpt>
      <trkpt lat="45.80158" lon="2.98501">
        <ele>970</ele>
        <time>2015-10-17T14:54:50Z</time>
      </trkpt>
      <trkpt lat="45.80114" lon="2.98473">
        <ele>968</ele>
        <time>2015-10-17T14:56:50Z</time>
      </trkpt>
      <trkpt lat="45.80108" lon="2.98429">
        <ele>969</ele>
        <time>2015-10-17T14:58:50Z</time>
      </trkpt>
      <trkpt lat="45.80083" lon="2.98397">
        <ele>968</ele>
        <time>2015-10-17T15:00:50Z</time>
      </trkpt>
      <trkpt lat="45.80058" lon="2.98377">
        <ele>969</ele>
        <time>2015-10-17T15:02:50Z</time>
      </trkpt>
      <trkpt lat="45.80001" lon="2.98359">
        <ele>968</ele>
        <time>2015-10-17T15:04:50Z</time>
      </trkpt>
      <trkpt lat="45.79951" lon="2.98356">
        <ele>970</ele>
        <time>2015-10-17T15:06:50Z</time>
      </trkpt>
      <trkpt lat="45.79898" lon="2.98363">
        <ele>971</ele>
        <time>2015-10-17T15:08:50Z</time>
      </trkpt>
      <trkpt lat="45.79883" lon="2.98348">
        <ele>972</ele>
        <time>2015-10-17T15:10:50Z</time>
      </trkpt>
      <trkpt lat="45.79827" lon="2.98335">
        <ele>972</ele>
        <time>2015-10-17T15:12:50Z</time>
      </trkpt>
      <trkpt lat="45.79773" lon="2.98301">
        <ele>974</ele>
        <time>2015-10-17T15:14:50Z</time>
      </trkpt>
      <trkpt lat="45.79628" lon="2.98279">
        <ele>970</ele>
        <time>2015-10-17T15:16:50Z</time>
      </trkpt>
      <trkpt lat="45.79527" lon="2.9818">
        <ele>974</ele>
        <time>2015-10-17T15:18:50Z</time>
      </trkpt>
      <trkpt lat="45.79453" lon="2.98075">
        <ele>976</ele>
        <time>2015-10-17T15:20:50Z</time>
      </trkpt>
      <trkpt lat="45.7938" lon="2.97932">
        <ele>981</ele>
        <time>2015-10-17T15:22:50Z</time>
      </trkpt>
      <trkpt lat="45.79331" lon="2.9785">
        <ele>983</ele>
        <time>2015-10-17T15:24:50Z</time>
      </trkpt>
      <trkpt lat="45.79253" lon="2.97736">
        <ele>980</ele>
        <time>2015-10-17T15:26:50Z</time>
      </trkpt>
      <trkpt lat="45.79239" lon="2.97646">
        <ele>988</ele>
        <time>2015-10-17T15:28:50Z</time>
      </trkpt>
      <trkpt lat="45.79236" lon="2.97494">
        <ele>1006</ele>
        <time>2015-10-17T15:30:50Z</time>
      </trkpt>
      <trkpt lat="45.79226" lon="2.97423">
        <ele>1015</ele>
        <time>2015-10-17T15:32:50Z</time>
      </trkpt>
      <trkpt lat="45.79247" lon="2.97316">
        <ele>1028</ele>
        <time>2015-10-17T15:34:50Z</time>
      </trkpt>
      <trkpt lat="45.79256" lon="2.97168">
        <ele>1052</ele>
        <time>2015-10-17T15:36:50Z</time>
      </trkpt>
      <trkpt lat="45.79305" lon="2.96942">
        <ele>1088</ele>
        <time>2015-10-17T15:38:50Z</time>
      </trkpt>
      <trkpt lat="45.79323" lon="2.96861">
        <ele>1092</ele>
        <time>2015-10-17T15:40:50Z</time>
      </trkpt>
      <trkpt lat="45.79363" lon="2.96762">
        <ele>1086</ele>
        <time>2015-10-17T15:42:50Z</time>
      </trkpt>
      <trkpt lat="45.79405" lon="2.9667">
        <ele>1075</ele>
        <time>2015-10-17T15:44:50Z</time>
      </trkpt>
      <trkpt lat="45.79449" lon="2.96563">
        <ele>1073</ele>
        <time>2015-10-17T15:46:50Z</time>
      </trkpt>
      <trkpt lat="45.79535" lon="2.96483">
        <ele>1080</ele>
        <time>2015-10-17T15:48:50Z</time>
      </trkpt>
      <trkpt lat="45.79649" lon="2.96421">
        <ele>1082</ele>
        <time>2015-10-17T15:50:50Z</time>
      </trkpt>
      <trkpt lat="45.79767" lon="2.96406">
        <ele>1079</ele>
        <time>2015-10-17T15:52:50Z</time>
      </trkpt>
      <trkpt lat="45.79889" lon="2.96453">
        <ele>1068</ele>
        <time>2015-10-17T15:54:50Z</time>
      </trkpt>
      <trkpt lat="45.79953" lon="2.96408">
        <ele>1056</ele>
        <time>2015-10-17T15:56:50Z</time>
      </trkpt>
      <trkpt lat="45.79972" lon="2.96316">
        <ele>1052</ele>
        <time>2015-10-17T15:58:50Z</time>
      </trkpt>
      <trkpt lat="45.79992" lon="2.96226">
        <ele>1044</ele>
        <time>2015-10-17T16:00:50Z</time>
      </trkpt>
      <trkpt lat="45.80013" lon="2.96131">
        <ele>1040</ele>
        <time>2015-10-17T16:02:50Z</time>
      </trkpt>
      <trkpt lat="45.80017" lon="2.96035">
        <ele>1036</ele>
        <time>2015-10-17T16:04:50Z</time>
      </trkpt>
      <trkpt lat="45.80013" lon="2.95839">
        <ele>1026</ele>
        <time>2015-10-17T16:06:50Z</time>
      </trkpt>
      <trkpt lat="45.79996" lon="2.95706">
        <ele>1017</ele>
        <time>2015-10-17T16:08:50Z</time>
      </trkpt>
      <trkpt lat="45.79987" lon="2.95595">
        <ele>1013</ele>
        <time>2015-10-17T16:10:50Z</time>
      </trkpt>
      <trkpt lat="45.79901" lon="2.95447">
        <ele>1006</ele>
        <time>2015-10-17T16:12:50Z</time>
      </trkpt>
      <trkpt lat="45.79814" lon="2.95367">
        <ele>1006</ele>
        <time>2015-10-17T16:14:50Z</time>
      </trkpt>
      <trkpt lat="45.79718" lon="2.95251">
        <ele>1006</ele>
        <time>2015-10-17T16:16:50Z</time>
      </trkpt>
      <trkpt lat="45.79616" lon="2.95125">
        <ele>1013</ele>
        <time>2015-10-17T16:18:50Z</time>
      </trkpt>
      <trkpt lat="45.79561" lon="2.95033">
        <ele>1020</ele>
        <time>2015-10-17T16:20:50Z</time>
      </trkpt>
      <trkpt lat="45.79518" lon="2.94932">
        <ele>1024</ele>
        <time>2015-10-17T16:22:50Z</time>
      </trkpt>
      <trkpt lat="45.79426" lon="2.94814">
        <ele>1032</ele>
        <time>2015-10-17T16:24:50Z</time>
      </trkpt>
      <trkpt lat="45.79325" lon="2.94668">
        <ele>1034</ele>
        <time>2015-10-17T16:26:50Z</time>
      </trkpt>
      <trkpt lat="45.79259" lon="2.9458">
        <ele>1033</ele>
        <time>2015-10-17T16:28:50Z</time>
      </trkpt>
      <trkpt lat="45.79193" lon="2.94477">
        <ele>1036</ele>
        <time>2015-10-17T16:30:50Z</time>
      </trkpt>
      <trkpt lat="45.79123" lon="2.94427">
        <ele>1039</ele>
        <time>2015-10-17T16:32:50Z</time>
      </trkpt>
      <trkpt lat="45.79079" lon="2.9443">
        <ele>1042</ele>
        <time>2015-10-17T16:34:50Z</time>
      </trkpt>
      <trkpt lat="45.79004" lon="2.94395">
        <ele>1050</ele>
        <time>2015-10-17T16:36:50Z</time>
      </trkpt>
      <trkpt lat="45.78897" lon="2.94408">
        <ele>1050</ele>
        <time>2015-10-17T16:38:50Z</time>
      </trkpt>
      <trkpt lat="45.78781" lon="2.9446">
        <ele>1043</ele>
        <time>2015-10-17T16:40:50Z</time>
      </trkpt>
      <trkpt lat="45.78707" lon="2.94442">
        <ele>1040</ele>
        <time>2015-10-17T16:42:50Z</time>
      </trkpt>
      <trkpt lat="45.78624" lon="2.94556">
        <ele>1044</ele>
        <time>2015-10-17T16:44:50Z</time>
      </trkpt>
      <trkpt lat="45.786" lon="2.9464">
        <ele>1047</ele>
        <time>2015-10-17T16:46:50Z</time>
      </trkpt>
      <trkpt lat="45.78617" lon="2.94764">
        <ele>1049</ele>
        <time>2015-10-17T16:48:50Z</time>
      </trkpt>
      <trkpt lat="45.78651" lon="2.94949">
        <ele>1058</ele>
        <time>2015-10-17T16:50:50Z</time>
      </trkpt>
      <trkpt lat="45.78623" lon="2.9502">
        <ele>1062</ele>
        <time>2015-10-17T16:52:50Z</time>
      </trkpt>
      <trkpt lat="45.78638" lon="2.95131">
        <ele>1071</ele>
        <time>2015-10-17T16:54:50Z</time>
      </trkpt>
      <trkpt lat="45.78602" lon="2.95279">
        <ele>1071</ele>
        <time>2015-10-17T16:56:50Z</time>
      </trkpt>
      <trkpt lat="45.7859" lon="2.95528">
        <ele>1068</ele>
        <time>2015-10-17T16:58:50Z</time>
      </trkpt>
      <trkpt lat="45.78584" lon="2.95657">
        <ele>1067</ele>
        <time>2015-10-17T17:00:50Z</time>
      </trkpt>
      <trkpt lat="45.78587" lon="2.95824">
        <ele>1073</ele>
        <time>2015-10-17T17:02:50Z</time>
      </trkpt>
      <trkpt lat="45.78597" lon="2.95919">
        <ele>1078</ele>
        <time>2015-10-17T17:04:50Z</time>
      </trkpt>
      <trkpt lat="45.78615" lon="2.95985">
        <ele>1085</ele>
        <time>2015-10-17T17:06:50Z</time>
      </trkpt>
      <trkpt lat="45.78581" lon="2.9606">
        <ele>1087</ele>
        <time>2015-10-17T17:08:50Z</time>
      </trkpt>
      <trkpt lat="45.7853" lon="2.96129">
        <ele>1093</ele>
        <time>2015-10-17T17:10:50Z</time>
      </trkpt>
      <trkpt lat="45.78494" lon="2.96189">
        <ele>1101</ele>
        <time>2015-10-17T17:12:50Z</time>
      </trkpt>
      <trkpt lat="45.78445" lon="2.96202">
        <ele>1102</ele>
        <time>2015-10-17T17:14:50Z</time>
      </trkpt>
      <trkpt lat="45.78383" lon="2.96279">
        <ele>1110</ele>
        <time>2015-10-17T17:16:50Z</time>
      </trkpt>
      <trkpt lat="45.78377" lon="2.96391">
        <ele>1121</ele>
        <time>2015-10-17T17:18:50Z</time>
      </trkpt>
      <trkpt lat="45.78383" lon="2.9652">
        <ele>1125</ele>
        <time>2015-10-17T17:20:50Z</time>
      </trkpt>
      <trkpt lat="45.78404" lon="2.96623">
        <ele>1125</ele>
        <time>2015-10-17T17:22:50Z</time>
      </trkpt>
      <trkpt lat="45.78437" lon="2.96777">
        <ele>1122</ele>
        <time>2015-10-17T17:24:50Z</time>
      </trkpt>
      <trkpt lat="45.78467" lon="2.96869">
        <ele>1122</ele>
        <time>2015-10-17T17:26:50Z</time>
      </trkpt>
      <trkpt lat="45.785" lon="2.96919">
        <ele>1118</ele>
        <time>2015-10-17T17:28:50Z</time>
      </trkpt>
      <trkpt lat="45.78529" lon="2.9706">
        <ele>1101</ele>
        <time>2015-10-17T17:30:50Z</time>
      </trkpt>
      <trkpt lat="45.78499" lon="2.97155">
        <ele>1094</ele>
        <time>2015-10-17T17:32:50Z</time>
      </trkpt>
      <trkpt lat="45.78476" lon="2.97178">
        <ele>1094</ele>
        <time>2015-10-17T17:34:50Z</time>
      </trkpt>
      <trkpt lat="45.78487" lon="2.97217">
        <ele>1089</ele>
        <time>2015-10-17T17:36:50Z</time>
      </trkpt>
      <trkpt lat="45.78515" lon="2.97223">
        <ele>1086</ele>
        <time>2015-10-17T17:38:50Z</time>
      </trkpt>
      <trkpt lat="45.7853" lon="2.97245">
        <ele>1082</ele>
        <time>2015-10-17T17:40:50Z</time>
      </trkpt>
      <trkpt lat="45.78578" lon="2.97273">
        <ele>1071</ele>
        <time>2015-10-17T17:42:50Z</time>
      </trkpt>
      <trkpt lat="45.78484" lon="2.97468">
        <ele>1046</ele>
        <time>2015-10-17T17:44:50Z</time>
      </trkpt>
      <trkpt lat="45.78424" lon="2.9762">
        <ele>1031</ele>
        <time>2015-10-17T17:46:50Z</time>
      </trkpt>
      <trkpt lat="45.78331" lon="2.97749">
        <ele>1017</ele>
        <time>2015-10-17T17:48:50Z</time>
      </trkpt>
      <trkpt lat="45.78244" lon="2.97865">
        <ele>996</ele>
        <time>2015-10-17T17:50:50Z</time>
      </trkpt>
      <trkpt lat="45.7816" lon="2.97908">
        <ele>985</ele>
        <time>2015-10-17T17:52:50Z</time>
      </trkpt>
      <trkpt lat="45.78168" lon="2.98002">
        <ele>975</ele>
        <time>2015-10-17T17:54:50Z</time>
      </trkpt>
      <trkpt lat="45.78163" lon="2.98127">
        <ele>961</ele>
        <time>2015-10-17T17:56:50Z</time>
      </trkpt>
      <trkpt lat="45.78148" lon="2.98268">
        <ele>949</ele>
        <time>2015-10-17T17:58:50Z</time>
      </trkpt>
      <trkpt lat="45.78136" lon="2.9838">
        <ele>940</ele>
        <time>2015-10-17T18:00:50Z</time>
      </trkpt>
      <trkpt lat="45.78123" lon="2.98577">
        <ele>929</ele>
        <time>2015-10-17T18:02:50Z</time>
      </trkpt>
      <trkpt lat="45.78186" lon="2.98588">
        <ele>928</ele>
        <time>2015-10-17T18:04:50Z</time>
      </trkpt>
      <trkpt lat="45.78306" lon="2.98541">
        <ele>932</ele>
        <time>2015-10-17T18:06:50Z</time>
      </trkpt>
      <trkpt lat="45.78398" lon="2.98519">
        <ele>933</ele>
        <time>2015-10-17T18:08:50Z</time>
      </trkpt>
      <trkpt lat="45.78484" lon="2.98472">
        <ele>934</ele>
        <time>2015-10-17T18:10:50Z</time>
      </trkpt>
      <trkpt lat="45.78555" lon="2.9844">
        <ele>936</ele>
        <time>2015-10-17T18:12:50Z</time>
      </trkpt>
      <trkpt lat="45.78623" lon="2.98421">
        <ele>937</ele>
        <time>2015-10-17T18:14:50Z</time>
      </trkpt>
      <trkpt lat="45.78693" lon="2.9841">
        <ele>937</ele>
        <time>2015-10-17T18:16:50Z</time>
      </trkpt>
      <trkpt lat="45.7876" lon="2.98406">
        <ele>938</ele>
        <time>2015-10-17T18:18:50Z</time>
      </trkpt>
      <trkpt lat="45.78859" lon="2.98446">
        <ele>942</ele>
        <time>2015-10-17T18:20:50Z</time>
      </trkpt>
      <trkpt lat="45.78918" lon="2.98472">
        <ele>944</ele>
        <time>2015-10-17T18:22:50Z</time>
      </trkpt>
      <trkpt lat="45.79146" lon="2.98522">
        <ele>938</ele>
        <time>2015-10-17T18:24:50Z</time>
      </trkpt>
      <trkpt lat="45.79284" lon="2.98575">
        <ele>939</ele>
        <time>2015-10-17T18:26:50Z</time>
      </trkpt>
      <trkpt lat="45.79386" lon="2.98627">
        <ele>942</ele>
        <time>2015-10-17T18:28:50Z</time>
      </trkpt>
      <trkpt lat="45.79417" lon="2.98674">
        <ele>942</ele>
        <time>2015-10-17T18:30:50Z</time>
      </trkpt>
      <trkpt lat="45.79458" lon="2.9873">
        <ele>942</ele>
        <time>2015-10-17T18:32:50Z</time>
      </trkpt>
      <trkpt lat="45.79497" lon="2.98768">
        <ele>942</ele>
        <time>2015-10-17T18:34:50Z</time>
      </trkpt>
      <trkpt lat="45.7958" lon="2.98747">
        <ele>947</ele>
        <time>2015-10-17T18:36:50Z</time>
      </trkpt>
      <trkpt lat="45.79687" lon="2.98796">
        <ele>951</ele>
        <time>2015-10-17T18:38:50Z</time>
      </trkpt>
      <trkpt lat="45.79711" lon="2.98858">
        <ele>952</ele>
        <time>2015-10-17T18:40:50Z</time>
      </trkpt>
      <trkpt lat="45.79769" lon="2.98882">
        <ele>957</ele>
        <time>2015-10-17T18:42:50Z</time>
      </trkpt>
      <trkpt lat="45.79851" lon="2.98899">
        <ele>964</ele>
        <time>2015-10-17T18:44:50Z</time>
      </trkpt>
      <trkpt lat="45.79814" lon="2.9877">
        <ele>964</ele>
        <time>2015-10-17T18:46:50Z</time>
      </trkpt>
      <trkpt lat="45.79878" lon="2.98715">
        <ele>966</ele>
        <time>2015-10-17T18:48:50Z</time>
      </trkpt>
      <trkpt lat="45.79859" lon="2.98627">
        <ele>962</ele>
        <time>2015-10-17T18:50:50Z</time>
      </trkpt>
      <trkpt lat="45.79844" lon="2.98577">
        <ele>962</ele>
        <time>2015-10-17T18:52:50Z</time>
      </trkpt>
      <trkpt lat="45.79824" lon="2.98509">
        <ele>964</ele>
        <time>2015-10-17T18:54:50Z</time>
      </trkpt>
      <trkpt lat="45.79927" lon="2.98401">
        <ele>968</ele>
        <time>2015-10-17T18:56:50Z</time>
      </trkpt>
      <trkpt lat="45.79972" lon="2.98348">
        <ele>970</ele>
        <time>2015-10-17T18:58:50Z</time>
      </trkpt>
      <trkpt lat="45.80032" lon="2.98365">
        <ele>969</ele>
        <time>2015-10-17T19:00:50Z</time>
      </trkpt>
      <trkpt lat="45.80093" lon="2.98414">
        <ele>968</ele>
        <time>2015-10-17T19:02:50Z</time>
      </trkpt>
      <trkpt lat="45.80111" lon="2.98451">
        <ele>969</ele>
        <time>2015-10-17T19:04:50Z</time>
      </trkpt>
      <trkpt lat="45.8014" lon="2.98496">
        <ele>970</ele>
        <time>2015-10-17T19:06:50Z</time>
      </trkpt>
      <trkpt lat="45.80176" lon="2.98513">
        <ele>972</ele>
        <time>2015-10-17T19:08:50Z</time>
      </trkpt>
      <trkpt lat="45.80191" lon="2.98567">
        <ele>973</ele>
        <time>2015-10-17T19:10:50Z</time>
      </trkpt>
      <trkpt lat="45.80201" lon="2.98627">
        <ele>972</ele>
        <time>2015-10-17T19:12:50Z</time>
      </trkpt>
      <trkpt lat="45.80216" lon="2.98672">
        <ele>972</ele>
        <time>2015-10-17T19:14:50Z</time>
      </trkpt>
      <trkpt lat="45.8023" lon="2.98702">
        <ele>974</ele>
        <time>2015-10-17T19:16:50Z</time>
      </trkpt>
      <trkpt lat="45.80258" lon="2.9871">
        <ele>975</ele>
        <time>2015-10-17T19:18:50Z</time>
      </trkpt>
      <trkpt lat="45.803" lon="2.987">
        <ele>974</ele>
        <time>2015-10-17T19:20:50Z</time>
      </trkpt>
      <trkpt lat="45.80347" lon="2.98691">
        <ele>975</ele>
        <time>2015-10-17T19:22:50Z</time>
      </trkpt>
    </trkseg>
  </trk>
</gpx>